Time;durP1;ratioP1;P1;durP2;ratioP2;P2;SDS_P1;SDS_P2;PMS_P1;PMS_P2;Temp;Humidity;BMP_temperature;BMP_pressure;BME280_temperature;BME280_humidity;BME280_pressure;Samples;Min_cycle;Max_cycle;Signal;HPM_P1;HPM_P2
2020/12/27 00:02:06;;;;;;;9.30;8.60;;;5.10;99.90;;;;;;4919864;29;20453;-89
2020/12/27 00:04:34;;;;;;;9.23;8.53;;;4.90;99.90;;;;;;4924500;29;20456;-88
2020/12/27 00:07:17;;;;;;;10.40;9.60;;;5.10;99.90;;;;;;4920751;29;20444;-89
2020/12/27 00:09:46;;;;;;;9.03;8.43;;;5.00;99.90;;;;;;4925313;29;20885;-89
2020/12/27 00:12:18;;;;;;;9.60;8.90;;;5.10;99.90;;;;;;4908494;29;20472;-89
2020/12/27 00:14:45;;;;;;;9.83;9.13;;;5.00;99.90;;;;;;4912926;29;20468;-88
2020/12/27 00:17:13;;;;;;;8.93;8.33;;;5.10;99.90;;;;;;4922606;29;20461;-88
2020/12/27 00:19:46;;;;;;;9.63;8.83;;;5.00;99.90;;;;;;4906123;29;20472;-88
2020/12/27 00:22:15;;;;;;;9.10;8.50;;;5.00;99.90;;;;;;4904461;29;20456;-89
2020/12/27 00:24:48;;;;;;;9.07;8.47;;;5.00;99.90;;;;;;4905956;29;20456;-88
2020/12/27 00:27:15;;;;;;;9.10;8.40;;;5.00;99.90;;;;;;4908870;29;20469;-88
2020/12/27 00:29:43;;;;;;;9.60;8.80;;;5.10;99.90;;;;;;4923095;29;20490;-88
2020/12/27 00:32:10;;;;;;;8.83;8.23;;;5.00;99.90;;;;;;4923680;29;20482;-88
2020/12/27 00:34:53;;;;;;;8.20;7.60;;;5.00;99.90;;;;;;4923650;29;20493;-88
2020/12/27 00:37:23;;;;;;;8.27;7.70;;;5.10;99.90;;;;;;4907771;29;20457;-88
2020/12/27 00:39:53;;;;;;;7.97;7.37;;;5.10;99.90;;;;;;4907558;29;20484;-88
2020/12/27 00:42:21;;;;;;;7.97;7.47;;;5.00;99.90;;;;;;4908165;29;20451;-89
2020/12/27 00:44:50;;;;;;;8.20;7.50;;;5.00;99.90;;;;;;4916175;29;20460;-89
2020/12/27 00:47:27;;;;;;;;;;;;;;;;;;;;;
2020/12/27 00:50:01;;;;;;;8.07;7.40;;;5.10;99.90;;;;;;4918706;29;20460;-89
2020/12/27 00:52:31;;;;;;;7.17;6.47;;;5.00;99.90;;;;;;4902345;29;20433;-89
2020/12/27 00:55:01;;;;;;;7.10;6.60;;;5.10;99.90;;;;;;4903133;29;20461;-88
2020/12/27 00:57:29;;;;;;;7.05;6.55;;;5.10;99.90;;;;;;4918215;29;20512;-89
2020/12/27 00:59:56;;;;;;;7.27;6.67;;;5.10;99.90;;;;;;4918315;29;20247;-89
2020/12/27 01:02:28;;;;;;;6.20;5.80;;;5.10;99.90;;;;;;4902461;29;20460;-89
2020/12/27 01:05:30;;;;;;;6.00;5.60;;;5.10;99.90;;;;;;4903458;29;20492;-89
2020/12/27 01:08:11;;;;;;;6.37;5.90;;;5.10;99.90;;;;;;4915262;29;20582;-89
2020/12/27 01:10:42;;;;;;;6.37;5.87;;;5.10;99.90;;;;;;4921632;29;20535;-89
2020/12/27 01:13:13;;;;;;;6.57;6.07;;;5.10;99.90;;;;;;4920887;29;20979;-88
2020/12/27 01:15:42;;;;;;;5.90;5.50;;;5.20;99.90;;;;;;4922372;29;20464;-89
2020/12/27 01:18:15;;;;;;;6.50;6.00;;;5.10;99.90;;;;;;4908348;29;20495;-89
2020/12/27 01:20:50;;;;;;;6.20;5.70;;;5.10;99.90;;;;;;4920155;29;20461;-89
2020/12/27 01:23:25;;;;;;;5.60;5.20;;;5.20;99.90;;;;;;4912647;29;20482;-89
2020/12/27 01:25:57;;;;;;;6.20;5.80;;;5.20;99.90;;;;;;4938934;29;20515;-88
2020/12/27 01:28:26;;;;;;;5.60;5.20;;;5.20;99.90;;;;;;4920689;29;20487;-89
2020/12/27 01:31:02;;;;;;;5.33;4.93;;;5.30;99.90;;;;;;4938331;29;20460;-89
2020/12/27 01:33:37;;;;;;;5.37;4.97;;;5.20;99.90;;;;;;4913686;29;20991;-90
2020/12/27 01:36:04;;;;;;;5.30;4.90;;;5.20;99.90;;;;;;4917182;29;20460;-88
2020/12/27 01:38:33;;;;;;;5.70;5.30;;;5.20;99.90;;;;;;4922731;29;20472;-89
2020/12/27 01:41:06;;;;;;;4.97;4.67;;;5.20;99.90;;;;;;4923108;29;20499;-89
2020/12/27 01:43:40;;;;;;;5.63;5.23;;;5.20;99.90;;;;;;4922845;29;20534;-89
2020/12/27 01:46:07;;;;;;;4.60;4.30;;;5.20;99.90;;;;;;4919481;29;20500;-89
2020/12/27 01:48:35;;;;;;;5.47;5.03;;;5.20;99.90;;;;;;4923985;29;20513;-89
2020/12/27 01:51:08;;;;;;;4.90;4.50;;;5.20;99.90;;;;;;4919752;29;20445;-88
2020/12/27 01:53:44;;;;;;;4.10;3.83;;;5.20;99.90;;;;;;4919739;29;20449;-89
2020/12/27 01:56:45;;;;;;;4.87;4.53;;;5.10;99.90;;;;;;4904522;29;20964;-88
2020/12/27 01:59:18;;;;;;;5.17;4.77;;;5.20;99.90;;;;;;4919542;29;20894;-89
2020/12/27 02:01:51;;;;;;;4.67;4.30;;;5.30;99.90;;;;;;4904525;29;20436;-89
2020/12/27 02:04:41;;;;;;;4.70;4.40;;;5.10;99.90;;;;;;4905040;29;20453;-89
2020/12/27 02:07:28;;;;;;;4.20;3.90;;;5.30;99.90;;;;;;4920711;29;20449;-89
2020/12/27 02:10:20;;;;;;;4.30;3.90;;;5.10;99.90;;;;;;4922892;29;20465;-88
2020/12/27 02:12:51;;;;;;;4.40;4.10;;;5.10;99.90;;;;;;4922602;29;20452;-89
2020/12/27 02:15:26;;;;;;;3.77;3.50;;;5.20;99.90;;;;;;4938371;29;20826;-89
2020/12/27 02:18:28;;;;;;;4.00;3.70;;;5.10;99.90;;;;;;4923296;29;20484;-89
2020/12/27 02:20:56;;;;;;;3.67;3.37;;;5.10;99.90;;;;;;4937888;29;20469;-88
2020/12/27 02:23:29;;;;;;;3.40;3.20;;;5.20;99.90;;;;;;4937987;29;20527;-89
2020/12/27 02:26:07;;;;;;;3.80;3.50;;;5.20;99.90;;;;;;4939136;29;20813;-88
2020/12/27 02:28:41;;;;;;;3.63;3.43;;;5.10;99.90;;;;;;4921078;29;20535;-88
2020/12/27 02:31:14;;;;;;;4.17;3.77;;;5.10;99.90;;;;;;4923020;29;20535;-89
2020/12/27 02:34:16;;;;;;;3.17;2.97;;;5.20;99.90;;;;;;4901883;29;20460;-89
2020/12/27 02:36:46;;;;;;;3.83;3.53;;;5.20;99.90;;;;;;4901751;29;20500;-88
2020/12/27 02:39:16;;;;;;;3.30;3.10;;;5.10;99.90;;;;;;4898275;29;20497;-88
2020/12/27 02:41:47;;;;;;;3.13;2.83;;;5.20;99.90;;;;;;4909079;29;20457;-88
2020/12/27 02:44:24;;;;;;;3.40;3.20;;;5.30;99.90;;;;;;4904211;29;20484;-88
2020/12/27 02:47:10;;;;;;;3.33;3.03;;;5.00;99.90;;;;;;4909892;29;20468;-88
2020/12/27 02:50:16;;;;;;;3.10;2.90;;;5.10;99.90;;;;;;4903233;29;20446;-88
2020/12/27 02:52:45;;;;;;;3.20;3.00;;;5.10;99.90;;;;;;4891194;29;20537;-88
2020/12/27 02:55:12;;;;;;;3.53;3.27;;;5.10;99.90;;;;;;4902523;29;20523;-89
2020/12/27 02:57:48;;;;;;;3.57;3.27;;;5.10;99.90;;;;;;4922043;29;20486;-88
2020/12/27 03:00:17;;;;;;;3.40;3.10;;;5.10;99.90;;;;;;4934981;29;20504;-89
2020/12/27 03:03:03;;;;;;;3.13;2.93;;;5.10;99.90;;;;;;4916733;29;20539;-89
2020/12/27 03:05:36;;;;;;;3.70;2.80;;;5.10;99.90;;;;;;4938086;29;20499;-88
2020/12/27 03:08:04;;;;;;;3.20;3.00;;;5.10;99.90;;;;;;4921215;29;20484;-88
2020/12/27 03:10:50;;;;;;;2.90;2.70;;;5.10;99.90;;;;;;4908653;29;20841;-88
2020/12/27 03:13:19;;;;;;;2.80;2.60;;;5.10;99.90;;;;;;4912989;29;20495;-88
2020/12/27 03:15:47;;;;;;;2.87;2.67;;;5.20;99.90;;;;;;4940109;29;20460;-88
2020/12/27 03:18:37;;;;;;;3.00;2.70;;;5.10;99.90;;;;;;4921763;29;21007;-88
2020/12/27 03:21:24;;;;;;;2.93;2.70;;;5.10;99.90;;;;;;4927146;29;20527;-88
2020/12/27 03:23:52;;;;;;;2.60;2.40;;;5.00;99.90;;;;;;4927436;29;20463;-88
2020/12/27 03:26:26;;;;;;;2.67;2.47;;;5.00;99.90;;;;;;4927586;29;20456;-88
2020/12/27 03:28:55;;;;;;;2.50;2.30;;;5.00;99.90;;;;;;4933144;29;20473;-88
2020/12/27 03:31:27;;;;;;;3.13;2.87;;;5.00;99.90;;;;;;4907891;29;20449;-88
2020/12/27 03:34:02;;;;;;;2.80;2.60;;;5.00;99.90;;;;;;4923617;29;20877;-88
2020/12/27 03:36:44;;;;;;;2.80;2.60;;;4.90;99.90;;;;;;4908963;29;20457;-88
2020/12/27 03:39:31;;;;;;;2.60;2.40;;;5.00;99.90;;;;;;4939359;29;20451;-88
2020/12/27 03:42:23;;;;;;;2.50;2.30;;;5.00;99.90;;;;;;4941828;29;20476;-89
2020/12/27 03:45:03;;;;;;;2.80;2.33;;;5.00;99.90;;;;;;4926661;29;20456;-88
2020/12/27 03:47:48;;;;;;;2.73;2.53;;;4.90;99.90;;;;;;4921105;29;20490;-89
2020/12/27 03:50:25;;;;;;;3.20;2.43;;;4.90;99.90;;;;;;4922709;29;20811;-88
2020/12/27 03:52:58;;;;;;;3.57;2.90;;;4.90;99.90;;;;;;4906671;29;20530;-88
2020/12/27 03:55:40;;;;;;;2.47;2.27;;;4.90;99.90;;;;;;4907943;29;20445;-88
2020/12/27 03:58:44;;;;;;;2.40;2.20;;;4.90;99.90;;;;;;4887528;29;20541;-88
2020/12/27 04:01:34;;;;;;;3.17;2.57;;;4.80;99.90;;;;;;4920202;29;20479;-88
2020/12/27 04:04:02;;;;;;;2.80;2.60;;;4.80;99.90;;;;;;4907230;29;20491;-88
2020/12/27 04:06:30;;;;;;;2.90;2.60;;;4.80;99.90;;;;;;4906855;29;20969;-87
2020/12/27 04:09:14;;;;;;;2.90;2.60;;;4.80;99.90;;;;;;4917915;29;20536;-88
2020/12/27 04:11:41;;;;;;;3.70;2.60;;;4.70;99.90;;;;;;4923335;29;20484;-88
2020/12/27 04:14:09;;;;;;;2.43;2.10;;;4.80;99.90;;;;;;4924009;29;20453;-88
2020/12/27 04:16:37;;;;;;;2.97;2.57;;;4.70;99.90;;;;;;4907724;29;20449;-88
2020/12/27 04:19:06;;;;;;;4.07;2.70;;;4.70;99.90;;;;;;4930772;29;20480;-88
2020/12/27 04:21:52;;;;;;;3.70;2.37;;;4.70;99.90;;;;;;4926848;29;20463;-87
2020/12/27 04:24:52;;;;;;;2.40;2.20;;;4.70;99.90;;;;;;4922101;29;20452;-88
2020/12/27 04:27:21;;;;;;;4.60;3.23;;;4.70;99.90;;;;;;4925299;29;20452;-88
2020/12/27 04:29:51;;;;;;;2.43;2.23;;;4.70;99.90;;;;;;4920868;29;20461;-88
2020/12/27 04:32:33;;;;;;;2.60;2.40;;;4.70;99.90;;;;;;4922272;29;20504;-89
2020/12/27 04:35:14;;;;;;;2.50;2.30;;;4.70;99.90;;;;;;4921953;29;20455;-89
2020/12/27 04:37:46;;;;;;;4.07;3.17;;;4.80;99.90;;;;;;4922518;29;20925;-89
2020/12/27 04:40:27;;;;;;;2.43;2.23;;;4.60;99.90;;;;;;4906324;29;20469;-88
2020/12/27 04:42:58;;;;;;;4.53;3.93;;;4.60;99.90;;;;;;4906822;29;20471;-88
2020/12/27 04:45:39;;;;;;;3.50;2.27;;;4.60;99.90;;;;;;4907361;29;20453;-88
2020/12/27 04:48:29;;;;;;;2.00;1.80;;;4.60;99.90;;;;;;4906197;29;20477;-88
2020/12/27 04:51:22;;;;;;;2.40;2.20;;;4.70;99.90;;;;;;4908305;29;20453;-89
2020/12/27 04:54:01;;;;;;;2.33;2.13;;;4.60;99.90;;;;;;4907995;29;20477;-87
2020/12/27 04:56:47;;;;;;;2.43;2.00;;;4.80;99.90;;;;;;4922960;29;20465;-88
2020/12/27 04:59:19;;;;;;;2.43;1.80;;;4.70;99.90;;;;;;4907252;29;20479;-88
2020/12/27 05:01:53;;;;;;;2.60;2.10;;;4.60;99.90;;;;;;4933539;29;20496;-89
2020/12/27 05:04:28;;;;;;;2.03;1.70;;;4.60;99.90;;;;;;4907805;29;20504;-88
2020/12/27 05:07:20;;;;;;;3.40;1.77;;;4.60;99.90;;;;;;4906343;29;20457;-88
2020/12/27 05:10:17;;;;;;;3.53;1.83;;;4.60;99.90;;;;;;4905454;29;20456;-88
2020/12/27 05:12:55;;;;;;;2.10;1.90;;;4.60;99.90;;;;;;4924592;29;20471;-87
2020/12/27 05:15:23;;;;;;;1.60;1.50;;;4.60;99.90;;;;;;4938699;29;20485;-87
2020/12/27 05:18:02;;;;;;;1.93;1.77;;;4.60;99.90;;;;;;4917848;29;20487;-88
2020/12/27 05:20:42;;;;;;;2.00;1.80;;;4.70;99.90;;;;;;4926500;29;20837;-88
2020/12/27 05:23:12;;;;;;;1.57;1.47;;;4.90;99.90;;;;;;4940870;29;20479;-88
2020/12/27 05:25:55;;;;;;;2.37;1.60;;;4.60;99.90;;;;;;4925046;29;20444;-88
2020/12/27 05:28:38;;;;;;;3.13;1.80;;;4.60;99.90;;;;;;4924985;29;20479;-88
2020/12/27 05:31:39;;;;;;;2.80;1.80;;;4.70;99.90;;;;;;4945645;29;20475;-88
2020/12/27 05:34:45;;;;;;;2.17;1.50;;;4.70;99.90;;;;;;4922909;29;20465;-88
2020/12/27 05:37:43;;;;;;;2.17;1.43;;;4.70;99.90;;;;;;4913666;29;20477;-87
2020/12/27 05:40:39;;;;;;;2.60;1.63;;;4.70;99.90;;;;;;4921296;29;20743;-88
2020/12/27 05:43:17;;;;;;;1.70;1.60;;;4.70;99.90;;;;;;4937111;29;20445;-88
2020/12/27 05:46:00;;;;;;;1.67;1.40;;;4.70;99.90;;;;;;4936967;29;20445;-89
2020/12/27 05:48:30;;;;;;;1.97;1.30;;;4.70;99.90;;;;;;4921600;29;20496;-88
2020/12/27 05:51:05;;;;;;;2.38;1.40;;;4.70;99.90;;;;;;4941191;29;20451;-88
2020/12/27 05:53:45;;;;;;;1.83;1.40;;;4.90;99.90;;;;;;4939061;29;20237;-89
2020/12/27 05:56:17;;;;;;;2.13;1.47;;;4.90;99.90;;;;;;4956174;29;20479;-88
2020/12/27 05:58:59;;;;;;;1.60;1.37;;;4.90;99.90;;;;;;4955906;29;20488;-88
2020/12/27 06:01:31;;;;;;;1.20;1.00;;;5.00;99.90;;;;;;4939667;29;20454;-88
2020/12/27 06:04:39;;;;;;;2.57;1.83;;;4.90;99.90;;;;;;4939484;29;20454;-89
2020/12/27 06:07:32;;;;;;;1.60;1.40;;;4.90;99.90;;;;;;4946963;29;20449;-88
2020/12/27 06:10:06;;;;;;;1.70;1.43;;;4.90;99.90;;;;;;4932263;29;20448;-89
2020/12/27 06:13:00;;;;;;;1.47;1.37;;;4.90;99.90;;;;;;4940708;29;20448;-89
2020/12/27 06:15:42;;;;;;;;;;;;;;;;;;;;;
2020/12/27 06:18:47;;;;;;;1.57;1.30;;;4.90;99.90;;;;;;4903296;29;20514;-88
2020/12/27 06:21:28;;;;;;;1.40;1.30;;;4.90;99.90;;;;;;4904843;29;20940;-88
2020/12/27 06:24:03;;;;;;;1.50;1.40;;;4.90;99.90;;;;;;4921949;29;20456;-88
2020/12/27 06:26:31;;;;;;;1.50;1.33;;;4.90;99.90;;;;;;4904143;29;20449;-88
2020/12/27 06:29:25;;;;;;;1.67;1.20;;;4.90;99.90;;;;;;4920086;29;20481;-89
2020/12/27 06:31:55;;;;;;;1.33;1.23;;;4.90;99.90;;;;;;4909807;29;20464;-88
2020/12/27 06:34:35;;;;;;;1.30;1.13;;;5.00;99.90;;;;;;4921033;29;20458;-89
2020/12/27 06:37:07;;;;;;;3.83;1.20;;;5.00;99.90;;;;;;4921292;29;20570;-88
2020/12/27 06:39:53;;;;;;;1.33;1.23;;;5.00;99.90;;;;;;4911217;29;20462;-88
2020/12/27 06:42:45;;;;;;;1.57;1.47;;;5.00;99.90;;;;;;4924556;29;20464;-88
2020/12/27 06:45:27;;;;;;;1.40;1.13;;;5.00;99.90;;;;;;4922973;29;20480;-88
2020/12/27 06:48:32;;;;;;;1.60;1.50;;;4.90;99.90;;;;;;4916826;29;20594;-89
2020/12/27 06:51:39;;;;;;;1.60;1.43;;;4.90;99.90;;;;;;4919576;29;20448;-89
2020/12/27 06:54:10;;;;;;;3.30;1.40;;;4.90;99.90;;;;;;4937984;29;20460;-89
2020/12/27 06:56:45;;;;;;;1.67;1.57;;;4.90;99.90;;;;;;4937124;29;20982;-89
2020/12/27 06:59:29;;;;;;;1.63;1.40;;;4.90;99.90;;;;;;4921681;29;20500;-89
2020/12/27 07:02:10;;;;;;;1.70;1.30;;;4.90;99.90;;;;;;4923704;29;20528;-89
2020/12/27 07:04:38;;;;;;;1.77;1.63;;;4.90;99.90;;;;;;4917966;29;20904;-89
2020/12/27 07:07:08;;;;;;;2.23;2.03;;;4.80;99.90;;;;;;4917718;29;20465;-89
2020/12/27 07:09:53;;;;;;;1.77;1.47;;;4.80;99.90;;;;;;4923827;29;20515;-89
2020/12/27 07:12:24;;;;;;;1.80;1.67;;;4.90;99.90;;;;;;4902218;29;20445;-89
2020/12/27 07:15:06;;;;;;;2.20;2.00;;;4.80;99.90;;;;;;4906844;29;20455;-89
2020/12/27 07:17:37;;;;;;;1.50;1.33;;;4.80;99.90;;;;;;4904881;29;20576;-89
2020/12/27 07:20:21;;;;;;;2.50;1.60;;;4.80;99.90;;;;;;4901320;29;20972;-89
2020/12/27 07:23:02;;;;;;;1.67;1.30;;;4.70;99.90;;;;;;4901711;29;20441;-89
2020/12/27 07:25:30;;;;;;;1.50;1.40;;;4.70;99.90;;;;;;4901882;29;20548;-89
2020/12/27 07:28:06;;;;;;;1.70;1.50;;;4.80;99.90;;;;;;4903140;29;21000;-89
2020/12/27 07:30:40;;;;;;;2.10;1.70;;;4.70;99.90;;;;;;4917250;29;20449;-89
2020/12/27 07:33:16;;;;;;;1.50;1.40;;;4.70;99.90;;;;;;4901921;29;20502;-89
2020/12/27 07:35:43;;;;;;;1.40;1.30;;;4.70;99.90;;;;;;4902729;29;20465;-89
2020/12/27 07:38:56;;;;;;;1.93;1.50;;;4.70;99.90;;;;;;4904963;29;20521;-89
2020/12/27 07:41:28;;;;;;;2.13;1.20;;;4.80;99.90;;;;;;4921766;29;20514;-89
2020/12/27 07:43:58;;;;;;;1.70;1.60;;;4.80;99.90;;;;;;4921239;29;20464;-88
2020/12/27 07:46:39;;;;;;;1.73;1.63;;;4.80;99.90;;;;;;4934470;29;20452;-89
2020/12/27 07:49:13;;;;;;;1.60;1.30;;;4.70;99.90;;;;;;4918797;29;20468;-89
2020/12/27 07:51:42;;;;;;;1.30;1.03;;;4.90;99.90;;;;;;4906619;29;20209;-90
2020/12/27 07:54:13;;;;;;;1.40;1.30;;;4.90;99.90;;;;;;4901829;29;20513;-88
2020/12/27 07:56:43;;;;;;;1.60;1.30;;;5.00;99.90;;;;;;4921976;29;20457;-88
2020/12/27 07:59:10;;;;;;;1.80;1.37;;;5.00;99.90;;;;;;4916659;29;20239;-89
2020/12/27 08:01:41;;;;;;;1.70;1.60;;;4.90;99.90;;;;;;4938594;29;20476;-89
2020/12/27 08:04:11;;;;;;;2.33;1.30;;;5.00;99.90;;;;;;4939109;29;20450;-89
2020/12/27 08:06:42;;;;;;;1.37;1.27;;;5.00;99.90;;;;;;4938931;29;20459;-89
2020/12/27 08:09:12;;;;;;;1.40;1.30;;;5.00;99.90;;;;;;4940740;29;20961;-88
2020/12/27 08:11:43;;;;;;;1.50;1.40;;;5.00;99.90;;;;;;4941719;29;20448;-88
2020/12/27 08:14:15;;;;;;;1.60;1.40;;;5.00;99.90;;;;;;4924773;29;20447;-89
2020/12/27 08:16:54;;;;;;;1.63;1.53;;;5.00;99.90;;;;;;4924365;29;20452;-89
2020/12/27 08:19:21;;;;;;;2.10;1.60;;;5.00;99.90;;;;;;4925238;29;21003;-89
2020/12/27 08:21:49;;;;;;;2.03;1.50;;;5.20;99.90;;;;;;4921528;29;20857;-89
2020/12/27 08:24:20;;;;;;;1.60;1.40;;;5.10;99.90;;;;;;4923654;29;20448;-88
2020/12/27 08:26:48;;;;;;;1.30;1.20;;;5.10;99.90;;;;;;4939632;29;20456;-89
2020/12/27 08:29:18;;;;;;;1.23;1.10;;;5.10;99.90;;;;;;4922993;29;20559;-89
2020/12/27 08:31:47;;;;;;;2.23;1.40;;;5.30;99.90;;;;;;4903465;29;20807;-89
2020/12/27 08:34:16;;;;;;;2.27;1.13;;;5.20;99.90;;;;;;4918369;29;20517;-89
2020/12/27 08:36:46;;;;;;;1.40;1.20;;;5.20;99.90;;;;;;4901906;29;20453;-89
2020/12/27 08:39:20;;;;;;;1.90;1.20;;;5.20;99.90;;;;;;4903726;29;20477;-89
2020/12/27 08:41:57;;;;;;;1.40;1.30;;;5.20;99.90;;;;;;4919138;29;20828;-89
2020/12/27 08:44:49;;;;;;;2.77;1.43;;;5.20;99.90;;;;;;4904240;29;20540;-89
2020/12/27 08:47:44;;;;;;;1.70;1.40;;;5.20;99.90;;;;;;4918810;29;20445;-89
2020/12/27 08:50:18;;;;;;;1.37;1.07;;;5.20;99.90;;;;;;4915869;29;20983;-88
2020/12/27 08:52:48;;;;;;;2.20;1.50;;;5.20;99.90;;;;;;4919021;29;20481;-89
2020/12/27 08:55:24;;;;;;;1.60;1.33;;;5.30;99.90;;;;;;4904331;29;20489;-89
2020/12/27 08:57:51;;;;;;;1.50;1.40;;;5.30;99.90;;;;;;4904092;29;20469;-89
2020/12/27 09:00:20;;;;;;;1.80;1.10;;;5.30;99.90;;;;;;4920254;29;20456;-89
2020/12/27 09:02:56;;;;;;;1.67;1.03;;;5.30;99.90;;;;;;4904822;29;20477;-87
2020/12/27 09:05:27;;;;;;;1.50;1.00;;;5.30;99.90;;;;;;4905154;29;20442;-88
2020/12/27 09:07:55;;;;;;;1.57;0.97;;;5.30;99.90;;;;;;4919588;29;20482;-89
2020/12/27 09:10:24;;;;;;;1.20;0.90;;;5.40;99.90;;;;;;4934992;29;20919;-89
2020/12/27 09:13:00;;;;;;;1.87;1.33;;;5.40;99.90;;;;;;4919466;29;20460;-89
2020/12/27 09:15:29;;;;;;;1.50;1.40;;;5.40;99.90;;;;;;4936050;29;20524;-89
2020/12/27 09:18:00;;;;;;;1.40;1.20;;;5.40;99.90;;;;;;4920878;29;20485;-89
2020/12/27 09:20:31;;;;;;;1.57;1.10;;;5.50;99.90;;;;;;4937369;29;20512;-89
2020/12/27 09:22:59;;;;;;;1.53;1.37;;;5.50;99.90;;;;;;4920698;29;20518;-88
2020/12/27 09:25:29;;;;;;;1.33;1.20;;;5.50;99.90;;;;;;4938496;29;20459;-89
2020/12/27 09:27:57;;;;;;;1.50;1.10;;;5.50;99.90;;;;;;4921596;29;20472;-89
2020/12/27 09:30:26;;;;;;;3.60;1.37;;;5.40;99.90;;;;;;4938040;29;20531;-89
2020/12/27 09:33:00;;;;;;;1.40;1.10;;;5.50;99.90;;;;;;4920884;29;20503;-88
2020/12/27 09:35:29;;;;;;;1.50;0.90;;;5.50;99.90;;;;;;4937172;29;20484;-88
2020/12/27 09:37:56;;;;;;;1.57;1.30;;;5.50;99.90;;;;;;4922657;29;20500;-89
2020/12/27 09:40:35;;;;;;;1.40;1.30;;;5.60;99.90;;;;;;4921737;29;20489;-87
2020/12/27 09:43:03;;;;;;;1.33;1.23;;;5.60;99.90;;;;;;4930961;29;20509;-88
2020/12/27 09:45:32;;;;;;;2.30;1.53;;;5.60;99.90;;;;;;4920049;29;20453;-88
2020/12/27 09:48:01;;;;;;;1.80;1.57;;;5.60;99.90;;;;;;4903635;29;20480;-88
2020/12/27 09:50:32;;;;;;;1.50;1.20;;;5.60;99.90;;;;;;4904354;29;20472;-88
2020/12/27 09:53:00;;;;;;;2.33;1.20;;;5.60;99.90;;;;;;4921946;29;20477;-88
2020/12/27 09:55:28;;;;;;;1.30;1.10;;;5.60;99.90;;;;;;4921724;29;20461;-88
2020/12/27 09:57:55;;;;;;;1.30;1.10;;;5.60;99.90;;;;;;4921771;29;20465;-87
2020/12/27 10:00:32;;;;;;;1.10;0.90;;;5.60;99.90;;;;;;4921062;29;20465;-88
2020/12/27 10:39:12;;;;;;;1.30;1.20;;;5.80;99.90;;;;;;4853920;29;21026;-88
2020/12/27 11:14:24;;;;;;;;;;;;;;;;;;;;;
2020/12/27 13:31:39;;;;;;;4.00;3.50;;;4.60;99.90;;;;;;5785599;24;20920;-89
2020/12/27 13:34:12;;;;;;;3.43;3.13;;;4.60;99.90;;;;;;6021425;23;20503;-88
2020/12/27 13:36:39;;;;;;;3.17;2.87;;;4.60;99.90;;;;;;6137777;23;20452;-89
2020/12/27 13:39:07;;;;;;;3.20;2.90;;;4.50;99.90;;;;;;6137475;23;20436;-89
2020/12/27 13:41:39;;;;;;;3.03;2.80;;;4.50;99.90;;;;;;6136789;23;20468;-88
2020/12/27 13:44:08;;;;;;;3.00;2.70;;;4.50;99.90;;;;;;6136008;23;20424;-89
2020/12/27 13:46:38;;;;;;;2.93;2.70;;;4.50;99.90;;;;;;6085620;23;20413;-89
2020/12/27 13:49:07;;;;;;;4.20;2.93;;;4.50;99.90;;;;;;6129833;23;20815;-89
2020/12/27 13:51:35;;;;;;;3.60;2.80;;;4.40;99.90;;;;;;6130417;23;20885;-88
2020/12/27 13:54:04;;;;;;;2.80;2.60;;;4.40;99.90;;;;;;6134212;23;20452;-89
2020/12/27 13:56:32;;;;;;;2.67;2.47;;;4.40;99.90;;;;;;6130132;23;20775;-88
2020/12/27 13:59:01;;;;;;;2.83;2.63;;;4.40;99.90;;;;;;6130045;23;20468;-89
2020/12/27 14:01:29;;;;;;;3.20;2.60;;;4.30;99.90;;;;;;6130689;23;20519;-89
2020/12/27 14:04:02;;;;;;;8.30;6.97;;;4.40;99.90;;;;;;6129513;23;20688;-92
2020/12/27 14:06:32;;;;;;;2.93;2.63;;;4.30;99.90;;;;;;6152932;23;20890;-91
2020/12/27 14:09:00;;;;;;;3.07;2.77;;;4.30;99.90;;;;;;6131431;23;20479;-87
2020/12/27 14:11:28;;;;;;;3.97;2.80;;;4.30;99.90;;;;;;6131513;23;20512;-89
2020/12/27 14:13:56;;;;;;;3.93;3.63;;;4.30;99.90;;;;;;6132558;23;20417;-88
2020/12/27 14:16:25;;;;;;;2.90;2.60;;;4.30;99.90;;;;;;6132552;23;20488;-88
2020/12/27 14:18:52;;;;;;;3.10;2.70;;;4.30;99.90;;;;;;6131303;23;20441;-88
2020/12/27 14:21:22;;;;;;;3.20;2.90;;;4.30;99.90;;;;;;6131694;23;20440;-88
2020/12/27 14:23:50;;;;;;;3.40;3.10;;;4.30;99.90;;;;;;6132749;23;20493;-88
2020/12/27 14:26:19;;;;;;;3.87;3.33;;;4.30;99.90;;;;;;6133019;23;20847;-88
2020/12/27 14:28:47;;;;;;;3.23;2.93;;;4.30;99.90;;;;;;6131408;23;20496;-88
2020/12/27 14:31:15;;;;;;;2.80;2.60;;;4.30;99.90;;;;;;6130486;23;20416;-89
2020/12/27 14:33:44;;;;;;;3.50;3.20;;;4.20;99.90;;;;;;6129015;23;20405;-88
2020/12/27 14:36:13;;;;;;;2.83;2.63;;;4.50;99.90;;;;;;6129452;23;20433;-88
2020/12/27 14:38:41;;;;;;;3.00;2.70;;;4.20;99.90;;;;;;6132171;23;20489;-88
2020/12/27 14:41:14;;;;;;;3.30;3.00;;;4.30;99.90;;;;;;6130337;23;20413;-88
2020/12/27 14:43:48;;;;;;;3.20;2.90;;;4.30;99.90;;;;;;6131459;23;20511;-88
2020/12/27 14:46:19;;;;;;;3.40;2.83;;;4.20;99.90;;;;;;6137423;23;20437;-87
2020/12/27 14:48:48;;;;;;;6.20;4.20;;;4.20;99.90;;;;;;6138390;23;20479;-88
2020/12/27 14:51:20;;;;;;;3.40;3.00;;;4.30;99.90;;;;;;6144146;23;20445;-89
2020/12/27 14:53:53;;;;;;;4.00;3.30;;;4.20;99.90;;;;;;6140745;23;20440;-88
2020/12/27 14:56:22;;;;;;;3.60;3.20;;;4.20;99.90;;;;;;6137764;23;20953;-88
2020/12/27 14:58:51;;;;;;;3.47;3.17;;;4.20;99.90;;;;;;6137701;23;20528;-89
2020/12/27 15:01:22;;;;;;;3.00;2.80;;;4.30;99.90;;;;;;6144465;23;20424;-88
2020/12/27 15:03:50;;;;;;;6.80;5.23;;;4.20;99.90;;;;;;6139045;23;20412;-88
2020/12/27 15:06:17;;;;;;;2.80;2.60;;;4.20;99.90;;;;;;6131472;23;20436;-88
2020/12/27 15:08:45;;;;;;;3.10;2.80;;;4.20;99.90;;;;;;6132499;23;20441;-87
2020/12/27 15:11:13;;;;;;;3.30;2.97;;;4.20;99.90;;;;;;6136608;23;20433;-87
2020/12/27 15:13:41;;;;;;;4.07;3.03;;;4.20;99.90;;;;;;6141034;23;20472;-88
2020/12/27 15:16:09;;;;;;;2.90;2.60;;;4.20;99.90;;;;;;6136571;23;20522;-88
2020/12/27 15:18:37;;;;;;;4.27;3.13;;;4.20;99.90;;;;;;6136392;23;20436;-88
2020/12/27 15:21:04;;;;;;;3.33;3.03;;;4.20;99.90;;;;;;6143535;23;20424;-88
2020/12/27 15:23:32;;;;;;;3.17;2.87;;;4.20;99.90;;;;;;6139679;23;20456;-88
2020/12/27 15:25:59;;;;;;;3.17;2.83;;;4.20;99.90;;;;;;6137821;23;20414;-88
2020/12/27 15:28:27;;;;;;;2.77;2.57;;;4.20;99.90;;;;;;6136111;23;20437;-88
2020/12/27 15:30:55;;;;;;;3.30;3.00;;;4.20;99.90;;;;;;6133973;23;20426;-88
2020/12/27 15:33:22;;;;;;;3.40;3.10;;;4.20;99.90;;;;;;6138228;23;20508;-88
2020/12/27 15:35:57;;;;;;;4.40;4.00;;;4.20;99.90;;;;;;6148594;23;20452;-88
2020/12/27 15:38:25;;;;;;;3.20;3.00;;;4.20;99.90;;;;;;6137436;23;20444;-88
2020/12/27 15:40:54;;;;;;;3.70;3.00;;;4.20;99.90;;;;;;6141941;23;20413;-88
2020/12/27 15:43:23;;;;;;;8.70;6.20;;;4.20;99.90;;;;;;6141661;23;20419;-88
2020/12/27 15:45:52;;;;;;;3.23;2.90;;;4.20;99.90;;;;;;6142811;23;20406;-88
2020/12/27 15:48:21;;;;;;;2.83;2.53;;;4.20;99.90;;;;;;6137709;23;20545;-88
2020/12/27 15:50:49;;;;;;;4.33;2.80;;;4.20;99.90;;;;;;6135982;23;20405;-89
2020/12/27 15:53:17;;;;;;;3.10;2.80;;;4.20;99.90;;;;;;6138662;23;20417;-87
2020/12/27 15:55:52;;;;;;;2.80;2.60;;;4.20;99.90;;;;;;6146002;23;20445;-88
2020/12/27 15:58:24;;;;;;;3.70;3.37;;;4.20;99.90;;;;;;6144492;23;20448;-88
2020/12/27 16:00:58;;;;;;;3.27;2.93;;;4.20;99.90;;;;;;6146559;23;20413;-88
2020/12/27 16:03:30;;;;;;;3.60;3.30;;;4.20;99.90;;;;;;6150370;23;20427;-88
2020/12/27 16:06:01;;;;;;;3.00;2.80;;;4.20;99.90;;;;;;6147712;23;20413;-88
2020/12/27 16:08:33;;;;;;;3.30;3.00;;;4.20;99.90;;;;;;6146617;23;20440;-88
2020/12/27 16:11:03;;;;;;;3.33;3.13;;;4.20;99.90;;;;;;6141358;23;20885;-88
2020/12/27 16:13:32;;;;;;;3.53;3.23;;;4.30;99.90;;;;;;6137973;23;20432;-88
2020/12/27 16:16:07;;;;;;;3.90;3.60;;;4.20;99.90;;;;;;6136789;23;20444;-87
2020/12/27 16:18:35;;;;;;;3.07;2.80;;;4.20;99.90;;;;;;6135919;23;20504;-88
2020/12/27 16:21:06;;;;;;;3.80;3.30;;;4.20;99.90;;;;;;6137147;23;20421;-88
2020/12/27 16:23:34;;;;;;;5.40;3.90;;;4.20;99.90;;;;;;6136535;23;20447;-88
2020/12/27 16:26:04;;;;;;;3.40;3.20;;;4.20;99.90;;;;;;6136243;23;20426;-88
2020/12/27 16:28:31;;;;;;;3.00;2.70;;;4.30;99.90;;;;;;6136488;23;20201;-88
2020/12/27 16:30:59;;;;;;;2.87;2.67;;;4.30;99.90;;;;;;6149102;23;20401;-87
2020/12/27 16:33:28;;;;;;;2.92;2.67;;;4.30;99.90;;;;;;6137286;23;20414;-88
2020/12/27 16:35:55;;;;;;;3.47;3.10;;;4.30;99.90;;;;;;6162219;23;20241;-88
2020/12/27 16:38:29;;;;;;;3.40;3.10;;;4.30;99.90;;;;;;6137136;23;20464;-88
2020/12/27 17:18:56;;;;;;;3.07;2.80;;;4.20;99.90;;;;;;5906921;24;20789;-87
2020/12/27 17:21:24;;;;;;;3.10;2.80;;;4.40;99.90;;;;;;5974145;24;20414;-87
2020/12/27 17:23:52;;;;;;;3.53;3.23;;;4.40;99.90;;;;;;5964631;24;20448;-87
2020/12/27 17:26:35;;;;;;;;;;;;;;;;;;;;;
2020/12/27 17:29:17;;;;;;;2.83;2.63;;;4.40;99.90;;;;;;5968937;24;20453;-87
2020/12/27 17:31:44;;;;;;;2.67;2.47;;;4.30;99.90;;;;;;5968148;24;20415;-87
2020/12/27 17:34:14;;;;;;;2.47;2.27;;;4.40;99.90;;;;;;5948911;24;20438;-87
2020/12/27 17:36:42;;;;;;;2.90;2.60;;;4.40;99.90;;;;;;5944675;24;20452;-87
2020/12/27 17:39:10;;;;;;;2.80;2.60;;;4.40;99.90;;;;;;5966170;24;20446;-87
2020/12/27 17:41:40;;;;;;;2.77;2.57;;;4.40;99.90;;;;;;5980664;23;20456;-87
2020/12/27 17:44:09;;;;;;;2.97;2.77;;;4.30;99.90;;;;;;6028215;23;20907;-87